sensor_id;sensor_type;location;lat;lon;timestamp;temperature;humidity
40255;DHT22;25973;52.368;4.940;2023-04-26T00:00:59;7.90;99.90
40255;DHT22;25973;52.368;4.940;2023-04-26T00:03:25;7.90;99.90
40255;DHT22;25973;52.368;4.940;2023-04-26T00:05:51;7.90;99.90
40255;DHT22;25973;52.368;4.940;2023-04-26T00:08:17;7.90;99.90
40255;DHT22;25973;52.368;4.940;2023-04-26T00:10:42;7.90;99.90
40255;DHT22;25973;52.368;4.940;2023-04-26T00:13:07;7.80;99.90
40255;DHT22;25973;52.368;4.940;2023-04-26T00:15:33;7.80;99.90
40255;DHT22;25973;52.368;4.940;2023-04-26T00:17:58;7.80;99.90
40255;DHT22;25973;52.368;4.940;2023-04-26T00:20:24;7.80;99.90
40255;DHT22;25973;52.368;4.940;2023-04-26T00:22:49;7.80;99.90
40255;DHT22;25973;52.368;4.940;2023-04-26T00:25:15;7.90;99.90
40255;DHT22;25973;52.368;4.940;2023-04-26T00:27:40;7.80;99.90
40255;DHT22;25973;52.368;4.940;2023-04-26T00:30:06;7.80;99.90
40255;DHT22;25973;52.368;4.940;2023-04-26T00:32:32;7.90;99.90
40255;DHT22;25973;52.368;4.940;2023-04-26T00:34:59;7.80;99.90
40255;DHT22;25973;52.368;4.940;2023-04-26T00:37:24;7.80;99.90
40255;DHT22;25973;52.368;4.940;2023-04-26T00:39:50;7.80;99.90
40255;DHT22;25973;52.368;4.940;2023-04-26T00:42:16;7.80;99.90
40255;DHT22;25973;52.368;4.940;2023-04-26T00:44:41;7.80;99.90
40255;DHT22;25973;52.368;4.940;2023-04-26T00:47:07;7.80;99.90
40255;DHT22;25973;52.368;4.940;2023-04-26T00:49:32;7.80;99.90
40255;DHT22;25973;52.368;4.940;2023-04-26T00:51:58;7.80;99.90
40255;DHT22;25973;52.368;4.940;2023-04-26T00:54:23;7.80;99.90
40255;DHT22;25973;52.368;4.940;2023-04-26T00:56:49;7.80;99.90
40255;DHT22;25973;52.368;4.940;2023-04-26T00:59:18;7.80;99.90
40255;DHT22;25973;52.368;4.940;2023-04-26T01:01:43;7.80;99.90
40255;DHT22;25973;52.368;4.940;2023-04-26T01:04:09;7.70;99.90
40255;DHT22;25973;52.368;4.940;2023-04-26T01:06:34;7.70;99.90
40255;DHT22;25973;52.368;4.940;2023-04-26T01:09:01;7.70;99.90
40255;DHT22;25973;52.368;4.940;2023-04-26T01:11:27;7.70;99.90
40255;DHT22;25973;52.368;4.940;2023-04-26T01:13:53;7.70;99.90
40255;DHT22;25973;52.368;4.940;2023-04-26T01:16:18;7.70;99.90
40255;DHT22;25973;52.368;4.940;2023-04-26T01:18:49;7.70;99.90
40255;DHT22;25973;52.368;4.940;2023-04-26T01:21:18;7.70;99.90
40255;DHT22;25973;52.368;4.940;2023-04-26T01:23:45;7.70;99.90
40255;DHT22;25973;52.368;4.940;2023-04-26T01:26:10;7.70;99.90
40255;DHT22;25973;52.368;4.940;2023-04-26T01:28:36;7.70;99.90
40255;DHT22;25973;52.368;4.940;2023-04-26T01:31:01;7.70;99.90
40255;DHT22;25973;52.368;4.940;2023-04-26T01:33:27;7.70;99.90
40255;DHT22;25973;52.368;4.940;2023-04-26T01:35:52;7.60;99.90
40255;DHT22;25973;52.368;4.940;2023-04-26T01:38:18;7.60;99.90
40255;DHT22;25973;52.368;4.940;2023-04-26T01:40:44;7.60;99.90
40255;DHT22;25973;52.368;4.940;2023-04-26T01:43:10;7.60;99.90
40255;DHT22;25973;52.368;4.940;2023-04-26T01:45:36;7.60;99.90
40255;DHT22;25973;52.368;4.940;2023-04-26T01:48:01;7.60;99.90
40255;DHT22;25973;52.368;4.940;2023-04-26T01:50:27;7.50;99.90
40255;DHT22;25973;52.368;4.940;2023-04-26T01:52:52;7.50;99.90
40255;DHT22;25973;52.368;4.940;2023-04-26T01:55:17;7.50;99.90
40255;DHT22;25973;52.368;4.940;2023-04-26T01:57:43;7.50;99.90
40255;DHT22;25973;52.368;4.940;2023-04-26T02:00:09;7.50;99.90
40255;DHT22;25973;52.368;4.940;2023-04-26T02:02:34;7.40;99.90
40255;DHT22;25973;52.368;4.940;2023-04-26T02:05:00;7.50;99.90
40255;DHT22;25973;52.368;4.940;2023-04-26T02:07:25;7.50;99.90
40255;DHT22;25973;52.368;4.940;2023-04-26T02:09:51;7.50;99.90
40255;DHT22;25973;52.368;4.940;2023-04-26T02:12:16;7.50;99.90
40255;DHT22;25973;52.368;4.940;2023-04-26T02:14:42;7.50;99.90
40255;DHT22;25973;52.368;4.940;2023-04-26T02:17:07;7.50;99.90
40255;DHT22;25973;52.368;4.940;2023-04-26T02:19:33;7.50;99.90
40255;DHT22;25973;52.368;4.940;2023-04-26T02:21:58;7.50;99.90
40255;DHT22;25973;52.368;4.940;2023-04-26T02:24:24;7.50;99.90
40255;DHT22;25973;52.368;4.940;2023-04-26T02:26:49;7.40;99.90
40255;DHT22;25973;52.368;4.940;2023-04-26T02:29:16;7.40;99.90
40255;DHT22;25973;52.368;4.940;2023-04-26T02:31:41;7.40;99.90
40255;DHT22;25973;52.368;4.940;2023-04-26T02:34:07;7.40;99.90
40255;DHT22;25973;52.368;4.940;2023-04-26T02:36:32;7.40;99.90
40255;DHT22;25973;52.368;4.940;2023-04-26T02:38:58;7.40;99.90
40255;DHT22;25973;52.368;4.940;2023-04-26T02:41:24;7.40;99.90
40255;DHT22;25973;52.368;4.940;2023-04-26T02:43:49;7.30;99.90
40255;DHT22;25973;52.368;4.940;2023-04-26T02:46:15;7.30;99.90
40255;DHT22;25973;52.368;4.940;2023-04-26T02:48:40;7.30;99.90
40255;DHT22;25973;52.368;4.940;2023-04-26T02:51:06;7.30;99.90
40255;DHT22;25973;52.368;4.940;2023-04-26T02:53:31;7.30;99.90
40255;DHT22;25973;52.368;4.940;2023-04-26T02:55:57;7.30;99.90
40255;DHT22;25973;52.368;4.940;2023-04-26T02:58:24;7.30;99.90
40255;DHT22;25973;52.368;4.940;2023-04-26T03:00:50;7.30;99.90
40255;DHT22;25973;52.368;4.940;2023-04-26T03:03:16;7.30;99.90
40255;DHT22;25973;52.368;4.940;2023-04-26T03:05:41;7.20;99.90
40255;DHT22;25973;52.368;4.940;2023-04-26T03:08:07;7.20;99.90
40255;DHT22;25973;52.368;4.940;2023-04-26T03:10:33;7.20;99.90
40255;DHT22;25973;52.368;4.940;2023-04-26T03:12:58;7.20;99.90
40255;DHT22;25973;52.368;4.940;2023-04-26T03:15:24;7.20;99.90
40255;DHT22;25973;52.368;4.940;2023-04-26T03:17:49;7.20;99.90
40255;DHT22;25973;52.368;4.940;2023-04-26T03:20:15;7.10;99.90
40255;DHT22;25973;52.368;4.940;2023-04-26T03:22:40;7.20;99.90
40255;DHT22;25973;52.368;4.940;2023-04-26T03:25:06;7.20;99.90
40255;DHT22;25973;52.368;4.940;2023-04-26T03:27:32;7.20;99.90
40255;DHT22;25973;52.368;4.940;2023-04-26T03:29:58;7.10;99.90
40255;DHT22;25973;52.368;4.940;2023-04-26T03:32:23;7.20;99.90
40255;DHT22;25973;52.368;4.940;2023-04-26T03:34:49;7.20;99.90
40255;DHT22;25973;52.368;4.940;2023-04-26T03:37:14;7.10;99.90
40255;DHT22;25973;52.368;4.940;2023-04-26T03:39:40;7.10;99.90
40255;DHT22;25973;52.368;4.940;2023-04-26T03:42:05;7.10;99.90
40255;DHT22;25973;52.368;4.940;2023-04-26T03:44:30;7.10;99.90
40255;DHT22;25973;52.368;4.940;2023-04-26T03:46:56;7.10;99.90
40255;DHT22;25973;52.368;4.940;2023-04-26T03:49:22;7.10;99.90
40255;DHT22;25973;52.368;4.940;2023-04-26T03:51:47;7.10;99.90
40255;DHT22;25973;52.368;4.940;2023-04-26T03:54:13;7.00;99.90
40255;DHT22;25973;52.368;4.940;2023-04-26T03:56:38;7.10;99.90
40255;DHT22;25973;52.368;4.940;2023-04-26T03:59:04;7.00;99.90
40255;DHT22;25973;52.368;4.940;2023-04-26T04:01:30;7.00;99.90
40255;DHT22;25973;52.368;4.940;2023-04-26T04:03:56;7.00;99.90
40255;DHT22;25973;52.368;4.940;2023-04-26T04:06:21;7.00;99.90
40255;DHT22;25973;52.368;4.940;2023-04-26T04:08:47;7.00;99.90
40255;DHT22;25973;52.368;4.940;2023-04-26T04:11:12;7.00;99.90
40255;DHT22;25973;52.368;4.940;2023-04-26T04:13:38;7.00;99.90
40255;DHT22;25973;52.368;4.940;2023-04-26T04:16:04;7.00;99.90
40255;DHT22;25973;52.368;4.940;2023-04-26T04:18:29;6.90;99.90
40255;DHT22;25973;52.368;4.940;2023-04-26T04:20:55;6.90;99.90
40255;DHT22;25973;52.368;4.940;2023-04-26T04:23:20;6.90;99.90
40255;DHT22;25973;52.368;4.940;2023-04-26T04:25:46;6.90;99.90
40255;DHT22;25973;52.368;4.940;2023-04-26T04:28:13;6.90;99.90
40255;DHT22;25973;52.368;4.940;2023-04-26T04:30:38;7.00;99.90
40255;DHT22;25973;52.368;4.940;2023-04-26T04:33:04;7.00;99.90
40255;DHT22;25973;52.368;4.940;2023-04-26T04:35:30;7.00;99.90
40255;DHT22;25973;52.368;4.940;2023-04-26T04:37:58;7.00;99.90
40255;DHT22;25973;52.368;4.940;2023-04-26T04:40:23;7.00;99.90
40255;DHT22;25973;52.368;4.940;2023-04-26T04:42:49;7.00;99.90
40255;DHT22;25973;52.368;4.940;2023-04-26T04:45:15;7.10;99.90
40255;DHT22;25973;52.368;4.940;2023-04-26T04:47:42;7.10;99.90
40255;DHT22;25973;52.368;4.940;2023-04-26T04:50:07;7.10;99.90
40255;DHT22;25973;52.368;4.940;2023-04-26T04:52:33;7.10;99.90
40255;DHT22;25973;52.368;4.940;2023-04-26T04:54:59;7.20;99.90
40255;DHT22;25973;52.368;4.940;2023-04-26T04:57:25;7.20;99.90
40255;DHT22;25973;52.368;4.940;2023-04-26T04:59:51;7.20;99.90
40255;DHT22;25973;52.368;4.940;2023-04-26T05:02:16;7.30;99.90
40255;DHT22;25973;52.368;4.940;2023-04-26T05:04:42;7.30;99.90
40255;DHT22;25973;52.368;4.940;2023-04-26T05:07:07;7.40;99.90
40255;DHT22;25973;52.368;4.940;2023-04-26T05:09:33;7.40;99.90
40255;DHT22;25973;52.368;4.940;2023-04-26T05:11:59;7.40;99.90
40255;DHT22;25973;52.368;4.940;2023-04-26T05:14:25;7.50;99.90
40255;DHT22;25973;52.368;4.940;2023-04-26T05:16:50;7.50;99.90
40255;DHT22;25973;52.368;4.940;2023-04-26T05:19:16;7.60;99.90
40255;DHT22;25973;52.368;4.940;2023-04-26T05:21:41;7.70;99.90
40255;DHT22;25973;52.368;4.940;2023-04-26T05:24:06;7.80;99.90
40255;DHT22;25973;52.368;4.940;2023-04-26T05:26:33;7.90;99.90
40255;DHT22;25973;52.368;4.940;2023-04-26T05:28:59;8.00;99.90
40255;DHT22;25973;52.368;4.940;2023-04-26T05:31:25;8.20;99.90
40255;DHT22;25973;52.368;4.940;2023-04-26T05:33:51;8.30;99.90
40255;DHT22;25973;52.368;4.940;2023-04-26T05:36:16;8.40;99.90
40255;DHT22;25973;52.368;4.940;2023-04-26T05:38:42;8.50;99.90
40255;DHT22;25973;52.368;4.940;2023-04-26T05:41:07;8.60;99.90
40255;DHT22;25973;52.368;4.940;2023-04-26T05:43:33;8.70;99.90
40255;DHT22;25973;52.368;4.940;2023-04-26T05:45:58;8.80;99.90
40255;DHT22;25973;52.368;4.940;2023-04-26T05:48:24;9.00;99.90
40255;DHT22;25973;52.368;4.940;2023-04-26T05:50:50;9.10;99.90
40255;DHT22;25973;52.368;4.940;2023-04-26T05:53:16;9.20;99.90
40255;DHT22;25973;52.368;4.940;2023-04-26T05:55:42;9.50;99.90
40255;DHT22;25973;52.368;4.940;2023-04-26T05:58:08;9.60;99.90
40255;DHT22;25973;52.368;4.940;2023-04-26T06:00:33;9.70;99.90
40255;DHT22;25973;52.368;4.940;2023-04-26T06:02:59;9.80;99.90
40255;DHT22;25973;52.368;4.940;2023-04-26T06:05:25;9.80;99.90
40255;DHT22;25973;52.368;4.940;2023-04-26T06:07:50;9.80;99.90
40255;DHT22;25973;52.368;4.940;2023-04-26T06:10:16;9.90;99.90
40255;DHT22;25973;52.368;4.940;2023-04-26T06:12:41;10.00;99.90
40255;DHT22;25973;52.368;4.940;2023-04-26T06:15:07;10.00;99.90
40255;DHT22;25973;52.368;4.940;2023-04-26T06:17:33;10.00;99.90
40255;DHT22;25973;52.368;4.940;2023-04-26T06:19:58;10.10;99.90
40255;DHT22;25973;52.368;4.940;2023-04-26T06:22:24;10.00;99.90
40255;DHT22;25973;52.368;4.940;2023-04-26T06:24:49;10.10;99.90
40255;DHT22;25973;52.368;4.940;2023-04-26T06:27:15;10.10;99.90
40255;DHT22;25973;52.368;4.940;2023-04-26T06:29:40;10.20;99.90
40255;DHT22;25973;52.368;4.940;2023-04-26T06:32:07;10.20;99.90
40255;DHT22;25973;52.368;4.940;2023-04-26T06:34:33;10.30;99.90
40255;DHT22;25973;52.368;4.940;2023-04-26T06:36:58;10.30;99.90
40255;DHT22;25973;52.368;4.940;2023-04-26T06:39:24;10.40;99.90
40255;DHT22;25973;52.368;4.940;2023-04-26T06:41:49;10.40;99.90
40255;DHT22;25973;52.368;4.940;2023-04-26T06:44:15;10.40;99.90
40255;DHT22;25973;52.368;4.940;2023-04-26T06:46:40;10.40;99.90
40255;DHT22;25973;52.368;4.940;2023-04-26T06:49:06;10.40;99.90
40255;DHT22;25973;52.368;4.940;2023-04-26T06:51:31;10.40;99.90
40255;DHT22;25973;52.368;4.940;2023-04-26T06:53:57;10.40;99.90
40255;DHT22;25973;52.368;4.940;2023-04-26T06:56:25;10.40;99.90
40255;DHT22;25973;52.368;4.940;2023-04-26T06:58:57;10.30;99.90
40255;DHT22;25973;52.368;4.940;2023-04-26T07:01:23;10.20;99.90
40255;DHT22;25973;52.368;4.940;2023-04-26T07:03:49;10.10;99.90
40255;DHT22;25973;52.368;4.940;2023-04-26T07:06:14;10.00;99.90
40255;DHT22;25973;52.368;4.940;2023-04-26T07:08:40;9.90;99.90
40255;DHT22;25973;52.368;4.940;2023-04-26T07:11:09;9.80;99.90
40255;DHT22;25973;52.368;4.940;2023-04-26T07:13:35;9.80;99.90
40255;DHT22;25973;52.368;4.940;2023-04-26T07:16:00;9.80;99.90
40255;DHT22;25973;52.368;4.940;2023-04-26T07:18:26;9.70;99.90
40255;DHT22;25973;52.368;4.940;2023-04-26T07:20:51;9.80;99.90
40255;DHT22;25973;52.368;4.940;2023-04-26T07:23:17;9.80;99.90
40255;DHT22;25973;52.368;4.940;2023-04-26T07:25:42;9.80;99.90
40255;DHT22;25973;52.368;4.940;2023-04-26T07:28:07;9.80;99.90
40255;DHT22;25973;52.368;4.940;2023-04-26T07:30:33;9.80;99.90
40255;DHT22;25973;52.368;4.940;2023-04-26T07:32:58;9.80;99.90
40255;DHT22;25973;52.368;4.940;2023-04-26T07:35:24;9.90;99.90
40255;DHT22;25973;52.368;4.940;2023-04-26T07:37:50;10.00;99.90
40255;DHT22;25973;52.368;4.940;2023-04-26T07:40:16;10.10;99.90
40255;DHT22;25973;52.368;4.940;2023-04-26T07:42:42;10.10;99.90
40255;DHT22;25973;52.368;4.940;2023-04-26T07:45:08;10.20;99.90
40255;DHT22;25973;52.368;4.940;2023-04-26T07:47:34;10.20;99.90
40255;DHT22;25973;52.368;4.940;2023-04-26T07:49:59;10.20;99.90
40255;DHT22;25973;52.368;4.940;2023-04-26T07:52:25;10.20;99.90
40255;DHT22;25973;52.368;4.940;2023-04-26T07:54:50;10.20;99.90
40255;DHT22;25973;52.368;4.940;2023-04-26T07:57:16;10.10;99.90
40255;DHT22;25973;52.368;4.940;2023-04-26T07:59:41;10.10;99.90
40255;DHT22;25973;52.368;4.940;2023-04-26T08:02:07;10.00;99.90
40255;DHT22;25973;52.368;4.940;2023-04-26T08:04:32;9.90;99.90
40255;DHT22;25973;52.368;4.940;2023-04-26T08:06:59;9.80;99.90
40255;DHT22;25973;52.368;4.940;2023-04-26T08:09:25;9.70;99.90
40255;DHT22;25973;52.368;4.940;2023-04-26T08:11:51;9.80;99.90
40255;DHT22;25973;52.368;4.940;2023-04-26T08:14:16;9.80;99.90
40255;DHT22;25973;52.368;4.940;2023-04-26T08:16:42;9.80;99.90
40255;DHT22;25973;52.368;4.940;2023-04-26T08:19:08;9.90;99.90
40255;DHT22;25973;52.368;4.940;2023-04-26T08:21:33;9.80;99.90
40255;DHT22;25973;52.368;4.940;2023-04-26T08:23:59;9.80;99.90
40255;DHT22;25973;52.368;4.940;2023-04-26T08:26:24;9.80;99.90
40255;DHT22;25973;52.368;4.940;2023-04-26T08:28:50;9.80;99.90
40255;DHT22;25973;52.368;4.940;2023-04-26T08:31:15;9.80;99.90
40255;DHT22;25973;52.368;4.940;2023-04-26T08:33:41;9.80;99.90
40255;DHT22;25973;52.368;4.940;2023-04-26T08:36:06;9.80;99.90
40255;DHT22;25973;52.368;4.940;2023-04-26T08:38:32;9.80;99.90
40255;DHT22;25973;52.368;4.940;2023-04-26T08:40:58;9.80;99.90
40255;DHT22;25973;52.368;4.940;2023-04-26T08:43:26;9.80;99.90
40255;DHT22;25973;52.368;4.940;2023-04-26T08:45:52;9.80;99.90
40255;DHT22;25973;52.368;4.940;2023-04-26T08:48:19;9.90;99.90
40255;DHT22;25973;52.368;4.940;2023-04-26T08:50:44;10.00;99.90
40255;DHT22;25973;52.368;4.940;2023-04-26T08:53:13;10.10;99.90
40255;DHT22;25973;52.368;4.940;2023-04-26T08:55:41;10.20;99.90
40255;DHT22;25973;52.368;4.940;2023-04-26T08:58:07;10.30;99.90
40255;DHT22;25973;52.368;4.940;2023-04-26T09:00:32;10.50;99.90
40255;DHT22;25973;52.368;4.940;2023-04-26T09:02:58;10.70;99.90
40255;DHT22;25973;52.368;4.940;2023-04-26T09:05:24;10.80;99.90
40255;DHT22;25973;52.368;4.940;2023-04-26T09:07:53;10.80;99.90
40255;DHT22;25973;52.368;4.940;2023-04-26T09:10:20;10.80;99.90
40255;DHT22;25973;52.368;4.940;2023-04-26T09:12:52;10.80;99.90
40255;DHT22;25973;52.368;4.940;2023-04-26T09:15:19;10.70;99.90
40255;DHT22;25973;52.368;4.940;2023-04-26T09:17:45;10.70;99.90
40255;DHT22;25973;52.368;4.940;2023-04-26T09:20:21;10.60;99.90
40255;DHT22;25973;52.368;4.940;2023-04-26T09:22:47;10.50;99.90
40255;DHT22;25973;52.368;4.940;2023-04-26T09:25:15;10.40;99.90
40255;DHT22;25973;52.368;4.940;2023-04-26T09:27:41;10.40;99.90
40255;DHT22;25973;52.368;4.940;2023-04-26T09:30:16;10.30;99.90
40255;DHT22;25973;52.368;4.940;2023-04-26T09:32:46;10.40;99.90
40255;DHT22;25973;52.368;4.940;2023-04-26T09:35:31;10.40;99.90
40255;DHT22;25973;52.368;4.940;2023-04-26T09:40:26;10.50;99.90
40255;DHT22;25973;52.368;4.940;2023-04-26T09:42:56;10.60;99.90
40255;DHT22;25973;52.368;4.940;2023-04-26T09:45:22;10.60;99.90
40255;DHT22;25973;52.368;4.940;2023-04-26T09:47:48;10.70;99.90
40255;DHT22;25973;52.368;4.940;2023-04-26T09:50:23;10.80;99.90
40255;DHT22;25973;52.368;4.940;2023-04-26T09:52:49;10.90;99.90
40255;DHT22;25973;52.368;4.940;2023-04-26T09:55:24;11.00;99.90
40255;DHT22;25973;52.368;4.940;2023-04-26T09:57:50;11.10;99.90
40255;DHT22;25973;52.368;4.940;2023-04-26T10:00:15;11.20;99.90
40255;DHT22;25973;52.368;4.940;2023-04-26T10:02:41;11.40;99.90
40255;DHT22;25973;52.368;4.940;2023-04-26T10:05:07;11.60;99.90
40255;DHT22;25973;52.368;4.940;2023-04-26T10:07:33;11.80;99.90
40255;DHT22;25973;52.368;4.940;2023-04-26T10:09:59;12.00;99.90
40255;DHT22;25973;52.368;4.940;2023-04-26T10:12:25;12.30;99.90
40255;DHT22;25973;52.368;4.940;2023-04-26T10:14:51;12.70;99.90
40255;DHT22;25973;52.368;4.940;2023-04-26T10:17:17;12.80;99.90
40255;DHT22;25973;52.368;4.940;2023-04-26T10:19:43;12.80;99.90
40255;DHT22;25973;52.368;4.940;2023-04-26T10:22:22;12.90;99.80
40255;DHT22;25973;52.368;4.940;2023-04-26T10:24:50;13.00;99.90
40255;DHT22;25973;52.368;4.940;2023-04-26T10:27:15;13.10;98.00
40255;DHT22;25973;52.368;4.940;2023-04-26T10:32:22;13.00;98.60
40255;DHT22;25973;52.368;4.940;2023-04-26T10:37:32;13.00;99.00
40255;DHT22;25973;52.368;4.940;2023-04-26T10:40:21;13.00;99.30
40255;DHT22;25973;52.368;4.940;2023-04-26T10:42:43;13.00;98.90
40255;DHT22;25973;52.368;4.940;2023-04-26T10:45:27;12.90;98.80
40255;DHT22;25973;52.368;4.940;2023-04-26T10:51:06;12.70;99.50
40255;DHT22;25973;52.368;4.940;2023-04-26T10:53:22;12.50;99.00
40255;DHT22;25973;52.368;4.940;2023-04-26T10:55:47;12.30;98.80
40255;DHT22;25973;52.368;4.940;2023-04-26T10:58:25;12.20;99.30
40255;DHT22;25973;52.368;4.940;2023-04-26T11:03:42;12.00;99.60
40255;DHT22;25973;52.368;4.940;2023-04-26T11:06:08;11.70;99.90
40255;DHT22;25973;52.368;4.940;2023-04-26T11:08:34;11.50;99.90
40255;DHT22;25973;52.368;4.940;2023-04-26T11:13:28;11.20;99.90
40255;DHT22;25973;52.368;4.940;2023-04-26T11:16:04;11.10;99.90
40255;DHT22;25973;52.368;4.940;2023-04-26T11:18:30;11.00;99.90
40255;DHT22;25973;52.368;4.940;2023-04-26T11:20:59;10.90;99.90
40255;DHT22;25973;52.368;4.940;2023-04-26T11:23:26;10.80;99.90
40255;DHT22;25973;52.368;4.940;2023-04-26T11:25:51;10.80;99.90
40255;DHT22;25973;52.368;4.940;2023-04-26T11:28:19;10.70;99.90
40255;DHT22;25973;52.368;4.940;2023-04-26T11:30:47;10.70;99.90
40255;DHT22;25973;52.368;4.940;2023-04-26T11:33:16;10.80;99.90
40255;DHT22;25973;52.368;4.940;2023-04-26T11:35:45;10.80;99.90
40255;DHT22;25973;52.368;4.940;2023-04-26T11:38:11;10.90;99.90
40255;DHT22;25973;52.368;4.940;2023-04-26T11:40:36;10.90;99.90
40255;DHT22;25973;52.368;4.940;2023-04-26T11:43:05;11.00;99.90
40255;DHT22;25973;52.368;4.940;2023-04-26T11:45:31;11.00;99.90
40255;DHT22;25973;52.368;4.940;2023-04-26T11:47:57;11.10;99.90
40255;DHT22;25973;52.368;4.940;2023-04-26T11:50:24;11.20;99.90
40255;DHT22;25973;52.368;4.940;2023-04-26T11:52:52;11.30;99.90
40255;DHT22;25973;52.368;4.940;2023-04-26T11:55:20;11.50;99.90
40255;DHT22;25973;52.368;4.940;2023-04-26T11:57:48;11.60;99.80
40255;DHT22;25973;52.368;4.940;2023-04-26T12:00:15;11.70;99.30
40255;DHT22;25973;52.368;4.940;2023-04-26T12:02:43;11.80;99.90
40255;DHT22;25973;52.368;4.940;2023-04-26T12:05:10;11.90;99.40
40255;DHT22;25973;52.368;4.940;2023-04-26T12:07:36;11.90;98.60
40255;DHT22;25973;52.368;4.940;2023-04-26T12:10:17;12.00;99.20
40255;DHT22;25973;52.368;4.940;2023-04-26T12:12:43;12.00;99.30
40255;DHT22;25973;52.368;4.940;2023-04-26T12:15:10;12.10;97.90
40255;DHT22;25973;52.368;4.940;2023-04-26T12:17:36;12.10;97.00
40255;DHT22;25973;52.368;4.940;2023-04-26T12:20:07;12.00;97.10
40255;DHT22;25973;52.368;4.940;2023-04-26T12:22:33;12.00;97.10
40255;DHT22;25973;52.368;4.940;2023-04-26T12:25:07;12.00;96.50
40255;DHT22;25973;52.368;4.940;2023-04-26T12:27:34;12.00;97.40
40255;DHT22;25973;52.368;4.940;2023-04-26T12:30:00;12.00;97.20
40255;DHT22;25973;52.368;4.940;2023-04-26T12:32:25;12.10;96.70
40255;DHT22;25973;52.368;4.940;2023-04-26T12:34:51;12.30;97.30
40255;DHT22;25973;52.368;4.940;2023-04-26T12:37:16;12.50;95.90
40255;DHT22;25973;52.368;4.940;2023-04-26T12:39:42;12.50;95.00
40255;DHT22;25973;52.368;4.940;2023-04-26T12:42:08;12.50;95.50
40255;DHT22;25973;52.368;4.940;2023-04-26T12:44:34;12.60;96.40
40255;DHT22;25973;52.368;4.940;2023-04-26T12:46:59;12.60;96.70
40255;DHT22;25973;52.368;4.940;2023-04-26T12:49:24;12.50;96.70
40255;DHT22;25973;52.368;4.940;2023-04-26T12:51:50;12.50;95.90
40255;DHT22;25973;52.368;4.940;2023-04-26T12:54:16;12.40;96.30
40255;DHT22;25973;52.368;4.940;2023-04-26T12:56:41;12.40;96.50
40255;DHT22;25973;52.368;4.940;2023-04-26T12:59:08;12.30;96.60
40255;DHT22;25973;52.368;4.940;2023-04-26T13:01:34;12.30;96.80
40255;DHT22;25973;52.368;4.940;2023-04-26T13:03:59;12.20;96.20
40255;DHT22;25973;52.368;4.940;2023-04-26T13:06:25;12.10;97.10
40255;DHT22;25973;52.368;4.940;2023-04-26T13:08:52;12.10;97.40
40255;DHT22;25973;52.368;4.940;2023-04-26T13:11:17;12.10;98.00
40255;DHT22;25973;52.368;4.940;2023-04-26T13:13:43;12.20;97.30
40255;DHT22;25973;52.368;4.940;2023-04-26T13:16:08;12.30;97.40
40255;DHT22;25973;52.368;4.940;2023-04-26T13:18:34;12.40;97.10
40255;DHT22;25973;52.368;4.940;2023-04-26T13:20:59;12.40;96.90
40255;DHT22;25973;52.368;4.940;2023-04-26T13:23:25;12.50;97.40
40255;DHT22;25973;52.368;4.940;2023-04-26T13:25:50;12.60;97.10
40255;DHT22;25973;52.368;4.940;2023-04-26T13:28:16;12.50;97.20
40255;DHT22;25973;52.368;4.940;2023-04-26T13:30:42;12.50;97.10
40255;DHT22;25973;52.368;4.940;2023-04-26T13:33:07;12.40;97.20
40255;DHT22;25973;52.368;4.940;2023-04-26T13:35:32;12.40;96.90
40255;DHT22;25973;52.368;4.940;2023-04-26T13:37:58;12.30;96.60
40255;DHT22;25973;52.368;4.940;2023-04-26T13:40:23;12.30;96.80
40255;DHT22;25973;52.368;4.940;2023-04-26T13:42:49;12.30;97.20
40255;DHT22;25973;52.368;4.940;2023-04-26T13:45:15;12.40;96.90
40255;DHT22;25973;52.368;4.940;2023-04-26T13:47:40;12.30;96.30
40255;DHT22;25973;52.368;4.940;2023-04-26T13:50:06;12.30;96.30
40255;DHT22;25973;52.368;4.940;2023-04-26T13:52:31;12.30;95.80
40255;DHT22;25973;52.368;4.940;2023-04-26T13:54:57;12.30;96.30
40255;DHT22;25973;52.368;4.940;2023-04-26T13:57:22;12.30;96.40
40255;DHT22;25973;52.368;4.940;2023-04-26T13:59:48;12.30;96.40
40255;DHT22;25973;52.368;4.940;2023-04-26T14:02:13;12.30;95.90
40255;DHT22;25973;52.368;4.940;2023-04-26T14:04:39;12.30;95.90
40255;DHT22;25973;52.368;4.940;2023-04-26T14:07:04;12.30;96.30
40255;DHT22;25973;52.368;4.940;2023-04-26T14:09:30;12.30;96.10
40255;DHT22;25973;52.368;4.940;2023-04-26T14:11:56;12.40;95.40
40255;DHT22;25973;52.368;4.940;2023-04-26T14:14:22;12.50;95.70
40255;DHT22;25973;52.368;4.940;2023-04-26T14:16:47;12.60;95.30
40255;DHT22;25973;52.368;4.940;2023-04-26T14:19:12;12.70;95.10
40255;DHT22;25973;52.368;4.940;2023-04-26T14:21:41;12.70;95.40
40255;DHT22;25973;52.368;4.940;2023-04-26T14:24:06;12.70;95.20
40255;DHT22;25973;52.368;4.940;2023-04-26T14:26:32;12.70;94.70
40255;DHT22;25973;52.368;4.940;2023-04-26T14:28:58;12.70;94.60
40255;DHT22;25973;52.368;4.940;2023-04-26T14:31:23;12.70;94.40
40255;DHT22;25973;52.368;4.940;2023-04-26T14:33:50;12.60;94.50
40255;DHT22;25973;52.368;4.940;2023-04-26T14:36:16;12.60;94.30
40255;DHT22;25973;52.368;4.940;2023-04-26T14:38:42;12.50;94.80
40255;DHT22;25973;52.368;4.940;2023-04-26T14:41:08;12.50;95.00
40255;DHT22;25973;52.368;4.940;2023-04-26T14:43:34;12.60;95.60
40255;DHT22;25973;52.368;4.940;2023-04-26T14:45:59;12.50;96.20
40255;DHT22;25973;52.368;4.940;2023-04-26T14:48:25;12.60;96.80
40255;DHT22;25973;52.368;4.940;2023-04-26T14:50:57;12.60;96.30
40255;DHT22;25973;52.368;4.940;2023-04-26T14:53:23;12.60;96.00
40255;DHT22;25973;52.368;4.940;2023-04-26T14:55:55;12.50;96.20
40255;DHT22;25973;52.368;4.940;2023-04-26T14:58:21;12.40;96.50
40255;DHT22;25973;52.368;4.940;2023-04-26T15:00:47;12.40;97.10
40255;DHT22;25973;52.368;4.940;2023-04-26T15:03:12;12.40;97.20
40255;DHT22;25973;52.368;4.940;2023-04-26T15:05:38;12.40;97.40
40255;DHT22;25973;52.368;4.940;2023-04-26T15:08:03;12.40;97.70
40255;DHT22;25973;52.368;4.940;2023-04-26T15:10:29;12.30;97.20
40255;DHT22;25973;52.368;4.940;2023-04-26T15:12:54;12.30;97.20
40255;DHT22;25973;52.368;4.940;2023-04-26T15:15:20;12.20;97.00
40255;DHT22;25973;52.368;4.940;2023-04-26T15:17:46;12.20;96.90
40255;DHT22;25973;52.368;4.940;2023-04-26T15:20:13;12.20;96.90
40255;DHT22;25973;52.368;4.940;2023-04-26T15:22:38;12.20;96.80
40255;DHT22;25973;52.368;4.940;2023-04-26T15:25:04;12.10;97.10
40255;DHT22;25973;52.368;4.940;2023-04-26T15:27:32;12.10;96.80
40255;DHT22;25973;52.368;4.940;2023-04-26T15:29:58;12.10;97.20
40255;DHT22;25973;52.368;4.940;2023-04-26T15:32:23;12.10;97.30
40255;DHT22;25973;52.368;4.940;2023-04-26T15:34:48;12.20;97.20
40255;DHT22;25973;52.368;4.940;2023-04-26T15:37:14;12.20;96.90
40255;DHT22;25973;52.368;4.940;2023-04-26T15:39:40;12.20;97.00
40255;DHT22;25973;52.368;4.940;2023-04-26T15:42:05;12.20;96.50
40255;DHT22;25973;52.368;4.940;2023-04-26T15:44:31;12.20;96.70
40255;DHT22;25973;52.368;4.940;2023-04-26T15:46:56;12.20;96.90